createdAt,value
2017-10-30T00:00:54.039Z,83.70
2017-10-30T00:03:22.282Z,84.10
2017-10-30T00:05:50.546Z,83.50
2017-10-30T00:08:18.791Z,83.00
2017-10-30T00:10:47.036Z,82.40
2017-10-30T00:13:15.622Z,82.60
2017-10-30T00:15:43.859Z,82.90
2017-10-30T00:18:12.102Z,83.50
2017-10-30T00:20:40.358Z,83.90
2017-10-30T00:23:08.613Z,84.60
2017-10-30T00:25:36.854Z,84.50
2017-10-30T00:28:05.882Z,85.90
2017-10-30T00:30:34.123Z,85.80
2017-10-30T00:33:02.366Z,85.90
2017-10-30T00:35:30.850Z,86.00
2017-10-30T00:37:59.094Z,86.70
2017-10-30T00:40:27.401Z,87.10
2017-10-30T00:42:55.654Z,87.70
2017-10-30T00:45:24.210Z,87.90
2017-10-30T00:47:53.219Z,89.00
2017-10-30T00:50:21.477Z,88.90
2017-10-30T00:52:49.719Z,88.90
2017-10-30T00:55:17.979Z,89.20
2017-10-30T00:57:46.346Z,89.20
2017-10-30T01:00:14.581Z,89.40
2017-10-30T01:02:43.590Z,89.60
2017-10-30T01:05:11.856Z,89.60
2017-10-30T01:07:40.930Z,90.00
2017-10-30T01:10:09.158Z,90.00
2017-10-30T01:12:37.422Z,90.10
2017-10-30T01:15:05.666Z,90.50
2017-10-30T01:17:34.673Z,90.30
2017-10-30T01:20:04.003Z,90.30
2017-10-30T01:22:32.237Z,90.20
2017-10-30T01:25:00.482Z,90.20
2017-10-30T01:27:28.743Z,90.10
2017-10-30T01:29:56.986Z,90.30
2017-10-30T01:32:25.226Z,90.40
2017-10-30T01:34:53.487Z,90.50
2017-10-30T01:37:21.726Z,90.60
2017-10-30T01:39:49.973Z,90.50
2017-10-30T01:42:18.502Z,90.40
2017-10-30T01:44:46.742Z,90.40
2017-10-30T01:47:15.407Z,90.80
2017-10-30T01:49:43.666Z,90.90
2017-10-30T01:52:11.903Z,90.80
2017-10-30T01:54:40.143Z,91.10
2017-10-30T01:57:08.400Z,91.10
2017-10-30T01:59:36.645Z,91.20
2017-10-30T02:02:04.882Z,91.30
2017-10-30T02:04:34.202Z,91.40
2017-10-30T02:07:02.445Z,91.40
2017-10-30T02:09:30.690Z,91.70
2017-10-30T02:11:58.949Z,91.70
2017-10-30T02:14:27.184Z,91.90
2017-10-30T02:16:56.186Z,92.00
2017-10-30T02:19:25.382Z,91.90
2017-10-30T02:21:54.394Z,91.90
2017-10-30T02:24:22.630Z,91.90
2017-10-30T02:26:51.298Z,91.90
2017-10-30T02:29:19.538Z,91.90
2017-10-30T02:31:47.779Z,92.00
2017-10-30T02:34:16.042Z,92.00
2017-10-30T02:36:44.339Z,91.90
2017-10-30T02:39:13.339Z,91.70
2017-10-30T02:41:43.554Z,91.60
2017-10-30T02:44:12.555Z,91.80
2017-10-30T02:46:41.567Z,91.90
2017-10-30T02:49:10.490Z,91.80
2017-10-30T02:51:38.736Z,91.80
2017-10-30T02:54:06.974Z,91.80
2017-10-30T02:56:35.238Z,92.10
2017-10-30T02:59:03.483Z,91.80
2017-10-30T03:01:31.716Z,91.40
2017-10-30T03:03:59.982Z,91.40
2017-10-30T03:06:28.220Z,91.10
2017-10-30T03:08:56.457Z,91.10
2017-10-30T03:11:24.894Z,91.20
2017-10-30T03:13:53.139Z,91.20
2017-10-30T03:16:21.369Z,91.30
2017-10-30T03:18:49.639Z,91.40
2017-10-30T03:21:17.874Z,91.40
2017-10-30T03:23:46.113Z,91.80
2017-10-30T03:26:15.138Z,92.40
2017-10-30T03:28:43.371Z,92.40
2017-10-30T03:31:12.378Z,93.00
2017-10-30T03:33:41.496Z,92.70
2017-10-30T03:36:09.752Z,92.60
2017-10-30T03:38:38.742Z,93.00
2017-10-30T03:41:07.770Z,92.80
2017-10-30T03:43:36.010Z,92.80
2017-10-30T03:46:04.250Z,92.70
2017-10-30T03:48:32.521Z,92.80
2017-10-30T03:51:00.935Z,92.50
2017-10-30T03:53:29.942Z,92.40
2017-10-30T03:55:58.494Z,92.40
2017-10-30T03:58:26.729Z,92.40
2017-10-30T04:00:54.968Z,92.50
2017-10-30T04:03:23.235Z,92.40
2017-10-30T04:05:51.478Z,92.50
2017-10-30T04:08:19.728Z,92.40
2017-10-30T04:10:47.998Z,92.20
2017-10-30T04:13:16.234Z,92.70
2017-10-30T04:15:44.470Z,92.40
2017-10-30T04:18:13.154Z,92.20
2017-10-30T04:20:41.394Z,92.30
2017-10-30T04:23:09.634Z,92.70
2017-10-30T04:25:37.906Z,92.70
2017-10-30T04:28:06.150Z,92.60
2017-10-30T04:30:34.421Z,92.50
2017-10-30T04:33:02.694Z,92.40
2017-10-30T04:35:30.943Z,92.20
2017-10-30T04:37:59.946Z,92.10
2017-10-30T04:40:28.479Z,92.10
2017-10-30T04:42:56.698Z,92.00
2017-10-30T04:45:24.944Z,92.20
2017-10-30T04:47:53.207Z,92.40
2017-10-30T04:50:21.446Z,92.40
2017-10-30T04:52:50.102Z,92.60
2017-10-30T04:55:19.751Z,92.90
2017-10-30T04:57:49.030Z,92.90
2017-10-30T05:00:17.297Z,92.80
2017-10-30T05:02:45.814Z,92.80
2017-10-30T05:05:14.054Z,93.10
2017-10-30T05:07:42.294Z,93.20
2017-10-30T05:10:10.560Z,93.60
2017-10-30T05:12:38.799Z,93.50
2017-10-30T05:15:07.034Z,93.30
2017-10-30T05:17:35.297Z,93.20
2017-10-30T05:20:03.542Z,93.20
2017-10-30T05:22:31.782Z,93.20
2017-10-30T05:25:00.310Z,93.30
2017-10-30T05:27:28.558Z,93.30
2017-10-30T05:29:56.792Z,93.30
2017-10-30T05:32:25.055Z,93.20
2017-10-30T05:34:53.295Z,93.20
2017-10-30T05:37:21.543Z,93.20
2017-10-30T05:39:50.566Z,93.40
2017-10-30T05:42:18.810Z,93.30
2017-10-30T05:44:47.059Z,93.40
2017-10-30T05:47:15.482Z,93.30
2017-10-30T05:49:44.494Z,93.40
2017-10-30T05:52:12.742Z,93.40
2017-10-30T05:54:42.322Z,93.30
2017-10-30T05:57:10.560Z,93.30
2017-10-30T05:59:38.820Z,93.50
2017-10-30T06:02:07.837Z,93.80
2017-10-30T06:04:36.339Z,93.70
2017-10-30T06:07:04.559Z,93.80
2017-10-30T06:09:33.904Z,94.00
2017-10-30T06:12:02.139Z,93.90
2017-10-30T06:14:30.587Z,93.80
2017-10-30T06:16:58.850Z,93.80
2017-10-30T06:19:27.110Z,93.70
2017-10-30T06:21:55.340Z,93.70
2017-10-30T06:24:23.602Z,93.60
2017-10-30T06:26:51.839Z,93.40
2017-10-30T06:29:20.087Z,93.30
2017-10-30T06:31:48.770Z,93.20
2017-10-30T06:34:16.991Z,93.10
2017-10-30T06:36:45.234Z,93.10
2017-10-30T06:39:13.510Z,93.10
2017-10-30T06:41:41.755Z,93.20
2017-10-30T06:44:09.994Z,93.40
2017-10-30T06:46:38.253Z,93.40
2017-10-30T06:49:06.487Z,93.30
2017-10-30T06:51:34.734Z,93.50
2017-10-30T06:54:03.503Z,93.40
2017-10-30T06:56:31.950Z,93.40
2017-10-30T06:59:00.171Z,93.30
2017-10-30T07:01:28.434Z,93.20
2017-10-30T07:03:56.682Z,93.20
2017-10-30T07:06:25.681Z,92.80
2017-10-30T07:08:53.933Z,92.80
2017-10-30T07:11:22.174Z,92.80
2017-10-30T07:13:50.415Z,92.90
2017-10-30T07:16:18.978Z,92.80
2017-10-30T07:18:47.223Z,92.70
2017-10-30T07:21:15.463Z,92.60
2017-10-30T07:23:43.727Z,92.50
2017-10-30T07:26:11.962Z,92.20
2017-10-30T07:28:40.205Z,91.90
2017-10-30T07:31:08.479Z,91.90
2017-10-30T07:33:36.896Z,91.90
2017-10-30T07:36:05.926Z,91.80
2017-10-30T07:38:34.273Z,91.80
2017-10-30T07:41:03.279Z,91.70
2017-10-30T07:43:32.290Z,90.90
2017-10-30T07:46:00.551Z,90.90
2017-10-30T07:48:28.815Z,90.80
2017-10-30T07:50:57.822Z,90.50
2017-10-30T07:53:26.115Z,90.00
2017-10-30T07:55:54.350Z,88.40
2017-10-30T07:58:22.850Z,88.60
2017-10-30T08:00:52.059Z,87.10
2017-10-30T08:03:20.291Z,87.00
2017-10-30T08:05:48.530Z,87.90
2017-10-30T08:08:16.802Z,86.90
2017-10-30T08:10:45.042Z,87.00
2017-10-30T08:13:14.088Z,87.00
2017-10-30T08:15:42.346Z,87.00
2017-10-30T08:18:10.592Z,86.80
2017-10-30T08:20:38.850Z,86.70
2017-10-30T08:23:07.941Z,85.90
2017-10-30T08:25:36.173Z,86.80
2017-10-30T08:28:04.418Z,87.00
2017-10-30T08:30:32.678Z,84.80
2017-10-30T08:33:00.914Z,84.20
2017-10-30T08:35:29.149Z,83.00
2017-10-30T08:37:58.186Z,82.20
2017-10-30T08:40:26.438Z,82.20
2017-10-30T08:42:54.679Z,82.60
2017-10-30T08:45:23.139Z,82.30
2017-10-30T08:47:51.377Z,81.90
2017-10-30T08:50:19.623Z,81.10
2017-10-30T08:52:47.881Z,81.40
2017-10-30T08:55:16.122Z,80.70
2017-10-30T08:57:44.363Z,82.90
2017-10-30T09:00:12.958Z,80.40
2017-10-30T09:02:41.199Z,82.20
2017-10-30T09:05:09.439Z,80.80
2017-10-30T09:07:38.118Z,79.90
2017-10-30T09:10:06.355Z,79.50
2017-10-30T09:12:34.591Z,77.60
2017-10-30T09:15:02.846Z,77.90
2017-10-30T09:17:31.087Z,75.10
2017-10-30T09:20:00.099Z,74.30
2017-10-30T09:22:28.359Z,74.20
2017-10-30T09:24:57.374Z,69.60
2017-10-30T09:27:25.613Z,69.70
2017-10-30T09:29:54.013Z,71.20
2017-10-30T09:32:22.346Z,70.80
2017-10-30T09:34:50.584Z,68.80
2017-10-30T09:37:18.855Z,68.60
2017-10-30T09:39:47.095Z,67.00
2017-10-30T09:42:15.339Z,62.50
2017-10-30T09:44:43.598Z,64.70
2017-10-30T09:47:11.847Z,65.10
2017-10-30T09:49:42.057Z,65.10
2017-10-30T09:52:10.487Z,65.30
2017-10-30T09:54:38.734Z,64.00
2017-10-30T09:57:06.975Z,63.50
2017-10-30T09:59:35.238Z,63.80
2017-10-30T10:02:03.745Z,63.70
2017-10-30T10:04:32.013Z,61.90
2017-10-30T10:07:00.266Z,60.90
2017-10-30T10:09:28.513Z,58.60
2017-10-30T10:11:56.879Z,58.80
2017-10-30T10:14:25.584Z,57.90
2017-10-30T10:16:53.899Z,57.70
2017-10-30T10:19:22.146Z,59.00
2017-10-30T10:21:50.423Z,59.60
2017-10-30T10:24:18.686Z,58.20
2017-10-30T10:26:46.930Z,55.60
2017-10-30T10:29:15.283Z,56.20
2017-10-30T10:31:43.529Z,54.20
2017-10-30T10:34:11.781Z,53.70
2017-10-30T10:36:40.386Z,53.50
2017-10-30T10:39:08.647Z,51.90
2017-10-30T10:41:36.909Z,51.00
2017-10-30T10:44:05.176Z,51.20
2017-10-30T10:46:34.949Z,54.10
2017-10-30T10:49:03.186Z,54.10
2017-10-30T10:51:31.468Z,54.40
2017-10-30T10:53:59.718Z,54.30
2017-10-30T10:56:28.021Z,55.40
2017-10-30T10:58:56.441Z,55.50
2017-10-30T11:01:24.715Z,55.60
2017-10-30T11:03:53.099Z,56.30
2017-10-30T11:06:21.506Z,56.90
2017-10-30T11:08:50.570Z,54.40
2017-10-30T11:11:18.813Z,54.30
2017-10-30T11:13:47.071Z,53.10
2017-10-30T11:16:15.316Z,50.80
2017-10-30T11:18:43.571Z,52.80
2017-10-30T11:21:12.014Z,50.00
2017-10-30T11:23:40.266Z,49.30
2017-10-30T11:26:08.690Z,48.10
2017-10-30T11:28:36.946Z,48.80
2017-10-30T11:31:05.566Z,48.30
2017-10-30T11:33:33.812Z,48.80
2017-10-30T11:36:02.092Z,47.40
2017-10-30T11:38:30.326Z,48.60
2017-10-30T11:40:58.813Z,48.30
2017-10-30T11:43:27.908Z,51.40
2017-10-30T11:45:56.148Z,51.40
2017-10-30T11:48:24.386Z,52.20
2017-10-30T11:50:52.670Z,53.40
2017-10-30T11:53:20.922Z,51.80
2017-10-30T11:55:49.934Z,50.40
2017-10-30T11:58:18.210Z,50.40
2017-10-30T12:00:46.449Z,50.80
2017-10-30T12:03:14.693Z,50.60
2017-10-30T12:05:43.125Z,51.20
2017-10-30T12:08:12.142Z,49.80
2017-10-30T12:10:40.394Z,49.20
2017-10-30T12:13:08.671Z,50.20
2017-10-30T12:15:37.686Z,46.80
2017-10-30T12:18:05.925Z,46.70
2017-10-30T12:20:34.242Z,44.20
2017-10-30T12:23:02.514Z,45.60
2017-10-30T12:25:30.750Z,44.60
2017-10-30T12:27:59.293Z,45.20
2017-10-30T12:30:27.547Z,45.70
2017-10-30T12:32:55.802Z,46.60
2017-10-30T12:35:25.346Z,46.80
2017-10-30T12:37:53.588Z,48.90
2017-10-30T12:40:22.654Z,49.40
2017-10-30T12:42:51.335Z,49.30
2017-10-30T12:45:19.586Z,47.90
2017-10-30T12:47:47.823Z,44.00
2017-10-30T12:50:16.550Z,43.70
2017-10-30T12:52:44.826Z,41.40
2017-10-30T12:55:13.285Z,40.40
2017-10-30T12:57:42.298Z,37.90
2017-10-30T13:00:10.812Z,38.10
2017-10-30T13:02:39.070Z,40.00
2017-10-30T13:05:08.311Z,40.30
2017-10-30T13:07:37.646Z,42.40
2017-10-30T13:10:05.886Z,42.40
2017-10-30T13:12:34.436Z,43.90
2017-10-30T13:15:02.731Z,43.40
2017-10-30T13:17:31.044Z,44.70
2017-10-30T13:19:59.309Z,44.80
2017-10-30T13:22:28.482Z,45.10
2017-10-30T13:24:56.725Z,45.80
2017-10-30T13:27:24.985Z,43.90
2017-10-30T13:29:53.242Z,45.30
2017-10-30T13:32:22.253Z,46.70
2017-10-30T13:34:50.768Z,46.60
2017-10-30T13:37:19.016Z,47.20
2017-10-30T13:39:47.257Z,47.50
2017-10-30T13:42:16.299Z,49.20
2017-10-30T13:44:44.542Z,49.10
2017-10-30T13:47:13.583Z,48.20
2017-10-30T13:49:41.863Z,48.10
2017-10-30T13:52:10.105Z,49.70
2017-10-30T13:54:38.358Z,49.10
2017-10-30T13:57:07.084Z,48.30
2017-10-30T13:59:35.325Z,50.80
2017-10-30T14:02:04.409Z,49.40
2017-10-30T14:04:33.444Z,49.40
2017-10-30T14:07:01.707Z,48.70
2017-10-30T14:09:30.133Z,47.80
2017-10-30T14:11:58.421Z,47.50
2017-10-30T14:14:26.658Z,46.50
2017-10-30T14:16:54.894Z,47.40
2017-10-30T14:19:23.582Z,47.60
2017-10-30T14:21:52.037Z,48.00
2017-10-30T14:24:20.287Z,48.70
2017-10-30T14:26:48.594Z,50.10
2017-10-30T14:29:16.870Z,50.60
2017-10-30T14:31:45.118Z,51.30
2017-10-30T14:34:13.395Z,51.10
2017-10-30T14:36:41.677Z,51.50
2017-10-30T14:39:09.913Z,50.40
2017-10-30T14:41:38.234Z,49.00
2017-10-30T14:44:06.482Z,47.60
2017-10-30T14:46:34.717Z,46.30
2017-10-30T14:49:03.399Z,46.30
2017-10-30T14:51:31.669Z,45.80
2017-10-30T14:53:59.913Z,47.20
2017-10-30T14:56:28.189Z,45.70
2017-10-30T14:58:56.497Z,47.00
2017-10-30T15:01:24.742Z,46.70
2017-10-30T15:03:53.455Z,48.30
2017-10-30T15:06:21.680Z,50.10
2017-10-30T15:08:49.930Z,50.80
2017-10-30T15:11:18.241Z,51.30
2017-10-30T15:13:46.494Z,52.30
2017-10-30T15:16:15.520Z,53.00
2017-10-30T15:18:43.790Z,52.90
2017-10-30T15:21:12.878Z,53.20
2017-10-30T15:23:41.384Z,54.10
2017-10-30T15:26:09.932Z,53.90
2017-10-30T15:28:38.948Z,54.30
2017-10-30T15:31:07.380Z,54.20
2017-10-30T15:33:35.706Z,54.10
2017-10-30T15:36:03.941Z,54.00
2017-10-30T15:38:32.201Z,54.50
2017-10-30T15:41:00.477Z,54.70
2017-10-30T15:43:29.782Z,54.80
2017-10-30T15:45:58.039Z,54.60
2017-10-30T15:48:26.617Z,55.00
2017-10-30T15:50:54.858Z,55.10
2017-10-30T15:53:23.098Z,55.30
2017-10-30T15:55:51.502Z,55.70
2017-10-30T15:58:21.582Z,56.10
2017-10-30T16:00:49.881Z,56.00
2017-10-30T16:03:18.127Z,56.60
2017-10-30T16:05:46.370Z,56.80
2017-10-30T16:08:14.610Z,57.20
2017-10-30T16:10:43.250Z,57.40
2017-10-30T16:13:11.498Z,57.60
2017-10-30T16:15:39.750Z,57.50
2017-10-30T16:18:08.033Z,57.50
2017-10-30T16:20:37.106Z,57.60
2017-10-30T16:23:05.341Z,57.60
2017-10-30T16:25:33.687Z,57.50
2017-10-30T16:28:01.929Z,57.70
2017-10-30T16:30:32.358Z,57.80
2017-10-30T16:33:00.686Z,58.20
2017-10-30T16:35:28.950Z,58.50
2017-10-30T16:37:57.206Z,58.90
2017-10-30T16:40:26.546Z,60.30
2017-10-30T16:42:54.792Z,59.60
2017-10-30T16:45:23.322Z,59.60
2017-10-30T16:47:51.574Z,59.20
2017-10-30T16:50:19.822Z,59.50
2017-10-30T16:52:48.078Z,59.70
2017-10-30T16:55:16.410Z,59.80
2017-10-30T16:57:44.672Z,59.00
2017-10-30T17:00:12.914Z,58.60
2017-10-30T17:02:41.194Z,58.40
2017-10-30T17:05:09.458Z,58.20
2017-10-30T17:07:37.737Z,58.10
2017-10-30T17:10:06.010Z,58.30
2017-10-30T17:12:34.254Z,58.20
2017-10-30T17:15:02.574Z,58.20
2017-10-30T17:17:30.931Z,57.90
2017-10-30T17:19:59.177Z,58.30
2017-10-30T17:22:27.424Z,58.70
2017-10-30T17:24:56.462Z,58.90
2017-10-30T17:27:24.834Z,58.80
2017-10-30T17:29:53.102Z,59.60
2017-10-30T17:32:22.492Z,59.90
2017-10-30T17:34:51.503Z,60.40
2017-10-30T17:37:19.758Z,60.30
2017-10-30T17:39:48.842Z,60.20
2017-10-30T17:42:18.005Z,61.40
2017-10-30T17:44:46.251Z,61.40
2017-10-30T17:47:14.528Z,61.40
2017-10-30T17:49:42.954Z,61.40
2017-10-30T17:52:11.252Z,61.70
2017-10-30T17:54:39.527Z,61.20
2017-10-30T17:57:07.786Z,60.50
2017-10-30T17:59:38.000Z,59.70
2017-10-30T18:02:06.730Z,59.80
2017-10-30T18:04:35.748Z,59.00
2017-10-30T18:07:03.992Z,59.00
2017-10-30T18:09:32.491Z,59.00
2017-10-30T18:12:01.493Z,60.60
2017-10-30T18:14:30.481Z,60.60
2017-10-30T18:16:58.758Z,60.00
2017-10-30T18:19:27.191Z,59.90
2017-10-30T18:22:01.177Z,60.00
2017-10-30T18:24:29.435Z,60.00
2017-10-30T18:26:57.692Z,59.50
2017-10-30T18:29:27.188Z,59.40
2017-10-30T18:31:56.210Z,59.30
2017-10-30T18:34:24.504Z,59.30
2017-10-30T18:36:52.930Z,60.00
2017-10-30T18:39:21.966Z,60.80
2017-10-30T18:41:51.215Z,60.70
2017-10-30T18:44:19.534Z,61.40
2017-10-30T18:46:47.851Z,61.40
2017-10-30T18:49:16.095Z,61.80
2017-10-30T18:51:46.590Z,61.90
2017-10-30T18:54:15.617Z,61.70
2017-10-30T18:56:43.862Z,61.70
2017-10-30T18:59:12.135Z,61.70
2017-10-30T19:01:40.419Z,61.60
2017-10-30T19:04:09.509Z,61.70
2017-10-30T19:06:38.763Z,62.00
2017-10-30T19:09:07.031Z,62.00
2017-10-30T19:11:35.273Z,62.20
2017-10-30T19:14:03.573Z,62.10
2017-10-30T19:16:31.845Z,62.30
2017-10-30T19:19:00.091Z,62.20
2017-10-30T19:21:29.127Z,62.20
2017-10-30T19:23:57.377Z,62.20
2017-10-30T19:26:26.388Z,62.70
2017-10-30T19:28:55.283Z,62.70
2017-10-30T19:31:23.589Z,63.10
2017-10-30T19:33:51.830Z,63.60
2017-10-30T19:36:20.110Z,65.30
2017-10-30T19:38:48.538Z,65.40
2017-10-30T19:41:16.782Z,63.80
2017-10-30T19:43:45.051Z,63.20
2017-10-30T19:46:13.427Z,62.70
2017-10-30T19:48:41.702Z,62.30
2017-10-30T19:51:10.413Z,62.60
2017-10-30T19:53:38.654Z,62.60
2017-10-30T19:56:06.910Z,62.80
2017-10-30T19:58:36.220Z,63.20
2017-10-30T20:01:04.461Z,63.10
2017-10-30T20:03:32.707Z,63.20
2017-10-30T20:06:06.594Z,63.10
2017-10-30T20:08:40.577Z,63.10
2017-10-30T20:11:14.496Z,63.00
2017-10-30T20:13:44.882Z,63.40
2017-10-30T20:16:13.282Z,63.60
2017-10-30T20:18:41.539Z,64.30
2017-10-30T20:21:09.912Z,66.50
2017-10-30T20:23:38.132Z,67.60
2017-10-30T20:26:07.334Z,67.20
2017-10-30T20:28:35.770Z,67.10
2017-10-30T20:31:04.059Z,65.10
2017-10-30T20:33:32.457Z,64.50
2017-10-30T20:36:00.909Z,64.40
2017-10-30T20:38:29.159Z,64.60
2017-10-30T20:40:57.429Z,64.70
2017-10-30T20:43:25.685Z,64.40
2017-10-30T20:45:54.130Z,64.70
2017-10-30T20:48:22.536Z,64.90
2017-10-30T20:50:51.554Z,66.70
2017-10-30T20:53:19.834Z,66.70
2017-10-30T20:55:48.340Z,66.30
2017-10-30T20:58:16.583Z,66.90
2017-10-30T21:00:45.002Z,67.30
2017-10-30T21:03:13.266Z,67.30
2017-10-30T21:05:48.518Z,67.60
2017-10-30T21:08:16.858Z,67.60
2017-10-30T21:10:45.282Z,67.60
2017-10-30T21:13:13.522Z,67.60
2017-10-30T21:15:43.067Z,67.00
2017-10-30T21:18:11.303Z,66.80
2017-10-30T21:20:39.714Z,66.80
2017-10-30T21:23:07.974Z,67.10
2017-10-30T21:25:36.242Z,67.10
2017-10-30T21:28:04.479Z,67.40
2017-10-30T21:30:32.939Z,67.70
2017-10-30T21:33:01.178Z,67.60
2017-10-30T21:35:29.415Z,67.40
2017-10-30T21:37:58.622Z,67.10
2017-10-30T21:40:27.062Z,67.10
2017-10-30T21:42:55.298Z,67.30
2017-10-30T21:45:23.726Z,67.50
2017-10-30T21:47:51.964Z,67.60
2017-10-30T21:50:20.206Z,67.60
2017-10-30T21:52:48.493Z,67.60
2017-10-30T21:55:16.748Z,67.70
2017-10-30T21:57:44.979Z,67.90
2017-10-30T22:00:13.663Z,67.80
2017-10-30T22:02:41.893Z,67.70
2017-10-30T22:05:10.906Z,68.00
2017-10-30T22:07:39.165Z,67.90
2017-10-30T22:10:07.407Z,68.00
2017-10-30T22:12:35.650Z,68.20
2017-10-30T22:15:03.914Z,68.60
2017-10-30T22:17:32.473Z,68.40
2017-10-30T22:20:01.495Z,68.40
2017-10-30T22:22:30.197Z,68.40
2017-10-30T22:24:58.443Z,68.90
2017-10-30T22:27:26.882Z,68.90
2017-10-30T22:29:55.155Z,69.30
2017-10-30T22:32:23.374Z,70.30
2017-10-30T22:34:51.610Z,69.80
2017-10-30T22:37:19.874Z,70.00
2017-10-30T22:39:48.114Z,69.80
2017-10-30T22:42:16.350Z,69.10
2017-10-30T22:44:44.770Z,69.60
2017-10-30T22:47:13.015Z,69.80
2017-10-30T22:49:42.018Z,72.20
2017-10-30T22:52:11.051Z,71.60
2017-10-30T22:54:39.287Z,71.40
2017-10-30T22:57:07.527Z,71.10
2017-10-30T22:59:35.790Z,71.10
2017-10-30T23:02:04.025Z,71.70
2017-10-30T23:04:32.274Z,71.50
2017-10-30T23:07:00.714Z,71.80
2017-10-30T23:09:28.951Z,72.10
2017-10-30T23:11:57.189Z,71.90
2017-10-30T23:14:25.447Z,71.30
2017-10-30T23:16:53.683Z,71.50
2017-10-30T23:19:23.482Z,71.30
2017-10-30T23:21:51.734Z,71.30
2017-10-30T23:24:19.978Z,71.40
2017-10-30T23:26:48.219Z,71.60
2017-10-30T23:29:18.582Z,72.30
2017-10-30T23:31:46.816Z,72.40
2017-10-30T23:34:15.061Z,72.60
2017-10-30T23:36:43.315Z,72.60
2017-10-30T23:39:11.555Z,73.30
2017-10-30T23:41:39.794Z,73.50
2017-10-30T23:44:08.057Z,73.90
2017-10-30T23:46:36.303Z,73.70
2017-10-30T23:49:04.546Z,73.70
2017-10-30T23:51:33.381Z,73.90
2017-10-30T23:54:01.617Z,74.20
2017-10-30T23:56:29.854Z,74.60
2017-10-30T23:58:58.120Z,75.00
